Time;durP1;ratioP1;P1;durP2;ratioP2;P2;SDS_P1;SDS_P2;PMS_P1;PMS_P2;Temp;Humidity;BMP_temperature;BMP_pressure;BME280_temperature;BME280_humidity;BME280_pressure;Samples;Min_cycle;Max_cycle;Signal;HPM_P1;HPM_P2
2021/05/03 00:00:28;;;;;;;5.83;5.28;;;;;;;5.30;78.67;98411.70;2170801;82;21171;-81
2021/05/03 00:03:32;;;;;;;6.85;5.58;;;;;;;5.36;78.60;98402.47;2170966;82;21080;-81
2021/05/03 00:06:33;;;;;;;4.50;4.10;;;;;;;5.36;78.69;98407.66;2170512;82;21175;-81
2021/05/03 00:09:35;;;;;;;6.95;5.37;;;;;;;5.36;78.59;98411.55;2170081;82;21132;-82
2021/05/03 00:12:36;;;;;;;5.87;5.12;;;;;;;5.33;78.66;98420.95;2169993;82;21144;-81
2021/05/03 00:15:38;;;;;;;5.60;5.10;;;;;;;5.39;78.74;98419.03;2169075;82;21262;-82
2021/05/03 00:18:40;;;;;;;5.55;5.05;;;;;;;5.45;78.70;98418.91;2133080;83;21294;-81
2021/05/03 00:21:43;;;;;;;6.62;5.00;;;;;;;5.47;78.65;98412.58;2133239;83;21309;-80
2021/05/03 00:24:44;;;;;;;5.67;5.17;;;;;;;5.50;78.58;98425.77;2133353;82;21745;-81
2021/05/03 00:27:46;;;;;;;6.70;5.22;;;;;;;5.47;78.54;98429.46;2133423;82;21305;-82
2021/05/03 00:30:48;;;;;;;4.37;4.08;;;;;;;5.45;78.66;98423.62;2133440;83;21329;-82
2021/05/03 00:33:50;;;;;;;5.97;5.40;;;;;;;5.44;78.63;98429.78;2133425;83;21321;-80
2021/05/03 00:36:52;;;;;;;5.50;5.00;;;;;;;5.42;78.58;98446.81;2133541;83;21301;-81
2021/05/03 00:39:54;;;;;;;6.20;5.70;;;;;;;5.41;78.77;98436.10;2133400;83;21710;-81
2021/05/03 00:42:56;;;;;;;5.53;4.53;;;;;;;5.40;78.68;98449.25;2133397;83;21136;-81
2021/05/03 00:45:57;;;;;;;6.25;5.35;;;;;;;5.41;78.69;98448.27;2159780;82;21163;-82
2021/05/03 00:48:59;;;;;;;6.15;5.53;;;;;;;5.45;78.73;98450.88;2170273;82;21143;-80
2021/05/03 00:52:01;;;;;;;5.50;5.00;;;;;;;5.50;78.62;98455.63;2170346;82;21170;-81
2021/05/03 00:55:03;;;;;;;4.25;3.83;;;;;;;5.53;78.66;98461.81;2170056;82;21171;-81
2021/05/03 00:58:05;;;;;;;5.70;5.05;;;;;;;5.50;78.44;98470.73;2170100;82;21749;-81
2021/05/03 01:01:07;;;;;;;5.60;5.10;;;;;;;5.48;78.65;98458.84;2169774;82;21191;-82
2021/05/03 01:04:09;;;;;;;5.90;4.92;;;;;;;5.50;78.56;98455.15;2169854;82;21160;-79
2021/05/03 01:07:11;;;;;;;5.42;4.90;;;;;;;5.54;78.34;98459.54;2142587;82;21293;-79
2021/05/03 01:10:12;;;;;;;5.33;4.83;;;;;;;5.57;78.25;98467.02;2133757;83;21262;-79
2021/05/03 01:13:14;;;;;;;4.58;4.25;;;;;;;5.62;78.18;98459.10;2149169;82;21265;-79
2021/05/03 01:16:16;;;;;;;5.20;4.67;;;;;;;5.61;78.01;98454.88;2170406;82;21076;-79
2021/05/03 01:19:21;;;;;;;6.25;4.87;;;;;;;5.60;78.02;98462.34;2171100;82;21266;-80
2021/05/03 01:22:23;;;;;;;4.75;4.35;;;;;;;5.57;78.03;98467.02;2170658;82;21330;-79
2021/05/03 01:25:28;;;;;;;7.03;4.97;;;;;;;5.59;78.11;98472.41;2170869;82;21318;-80
2021/05/03 01:28:29;;;;;;;6.37;4.95;;;;;;;5.59;78.17;98473.70;2168697;82;21290;-80
2021/05/03 01:31:31;;;;;;;5.45;5.03;;;;;;;5.61;78.39;98476.14;2170885;82;21727;-80
2021/05/03 01:34:33;;;;;;;7.10;5.25;;;;;;;5.61;78.48;98486.05;2171093;82;21314;-81
2021/05/03 01:37:35;;;;;;;5.37;4.87;;;;;;;5.64;78.54;98478.42;2140829;82;21176;-82
2021/05/03 01:40:37;;;;;;;5.92;5.33;;;;;;;5.67;78.62;98482.03;2133980;83;21185;-82
2021/05/03 01:43:39;;;;;;;5.67;4.80;;;;;;;5.65;78.49;98477.45;2134260;83;21182;-82
2021/05/03 01:46:41;;;;;;;5.70;5.20;;;;;;;5.67;78.45;98480.25;2134032;83;21619;-80
2021/05/03 01:49:43;;;;;;;7.42;5.60;;;;;;;5.70;78.52;98476.03;2135124;83;21734;-82
2021/05/03 01:52:44;;;;;;;5.30;4.90;;;;;;;5.74;78.47;98475.72;2134241;83;21142;-81
2021/05/03 01:55:46;;;;;;;5.85;5.25;;;;;;;5.76;78.44;98478.97;2133982;83;21112;-81
2021/05/03 01:58:48;;;;;;;6.22;5.65;;;;;;;5.75;78.42;98474.26;2134211;83;21584;-81
2021/05/03 02:01:50;;;;;;;5.62;5.10;;;;;;;5.73;78.20;98481.88;2134081;82;21150;-82
2021/05/03 02:04:52;;;;;;;5.30;4.10;;;;;;;5.67;78.25;98491.94;2142682;82;21119;-82
2021/05/03 02:07:53;;;;;;;6.45;5.83;;;;;;;5.66;78.39;98495.96;2134202;83;21167;-81
2021/05/03 02:10:55;;;;;;;6.70;5.75;;;;;;;5.65;78.43;98490.44;2134473;83;21151;-80
2021/05/03 02:13:57;;;;;;;6.17;5.00;;;;;;;5.63;78.43;98482.80;2134227;83;21162;-82
2021/05/03 02:16:59;;;;;;;5.30;4.90;;;;;;;5.57;78.28;98492.98;2134306;83;21166;-81
2021/05/03 02:20:01;;;;;;;6.15;5.30;;;;;;;5.51;78.29;98497.02;2134418;82;21187;-81
2021/05/03 02:23:03;;;;;;;5.37;4.92;;;;;;;5.46;78.35;98503.14;2149382;82;21781;-82
2021/05/03 02:26:05;;;;;;;6.97;4.85;;;;;;;5.39;78.24;98508.16;2170671;82;21314;-82
2021/05/03 02:29:06;;;;;;;5.20;4.70;;;;;;;5.33;78.24;98504.85;2171042;82;21298;-81
2021/05/03 02:32:08;;;;;;;3.70;3.40;;;;;;;5.27;78.27;98506.74;2152652;82;21678;-81
2021/05/03 02:35:10;;;;;;;4.40;4.05;;;;;;;5.22;77.93;98502.98;2134112;83;21221;-82
2021/05/03 02:38:12;;;;;;;4.55;4.17;;;;;;;5.20;78.03;98518.69;2134195;83;21143;-82
2021/05/03 02:41:15;;;;;;;5.67;4.58;;;;;;;5.21;78.01;98520.34;2134038;83;21171;-82
2021/05/03 02:44:17;;;;;;;5.50;5.00;;;;;;;5.21;77.89;98529.43;2134200;83;21194;-82
2021/05/03 02:47:18;;;;;;;6.00;5.10;;;;;;;5.20;78.04;98531.67;2133839;83;21191;-82
2021/05/03 02:50:21;;;;;;;4.42;4.05;;;;;;;5.19;78.16;98530.52;2134247;82;21170;-82
2021/05/03 02:53:22;;;;;;;5.30;4.47;;;;;;;5.24;78.32;98530.91;2133894;83;21630;-81
2021/05/03 02:56:26;;;;;;;5.90;5.20;;;;;;;5.27;78.37;98535.30;2133879;83;21155;-81
2021/05/03 02:59:28;;;;;;;6.58;5.87;;;;;;;5.33;78.46;98532.59;2140192;82;21143;-81
2021/05/03 03:02:30;;;;;;;5.67;5.15;;;;;;;5.36;78.37;98538.78;2170946;82;21306;-82
2021/05/03 03:05:32;;;;;;;6.15;5.53;;;;;;;5.37;78.40;98532.61;2171041;82;21278;-80
2021/05/03 03:08:34;;;;;;;6.47;4.58;;;;;;;5.38;78.32;98538.95;2166084;82;21168;-81
2021/05/03 03:11:35;;;;;;;5.55;4.92;;;;;;;5.44;78.44;98540.14;2161483;82;21702;-81
2021/05/03 03:14:38;;;;;;;5.05;4.35;;;;;;;5.48;78.36;98534.97;2161471;82;21270;-81
2021/05/03 03:17:40;;;;;;;5.42;4.90;;;;;;;5.53;78.43;98536.64;2161408;82;21322;-82
2021/05/03 03:20:41;;;;;;;6.20;5.33;;;;;;;5.57;78.45;98540.55;2161602;82;21300;-82
2021/05/03 03:23:43;;;;;;;6.70;5.45;;;;;;;5.57;78.45;98539.73;2161205;82;21706;-82
2021/05/03 03:26:45;;;;;;;6.35;5.22;;;;;;;5.53;78.33;98544.43;2161429;82;21311;-82
2021/05/03 03:29:47;;;;;;;6.72;5.30;;;;;;;5.53;78.60;98547.52;2160932;82;21167;-82
2021/05/03 03:32:48;;;;;;;6.83;5.37;;;;;;;5.55;78.64;98551.58;2161355;82;21167;-83
2021/05/03 03:35:50;;;;;;;7.95;7.12;;;;;;;5.56;78.35;98561.48;2161539;82;21282;-83
2021/05/03 03:38:51;;;;;;;6.00;5.55;;;;;;;5.59;78.43;98558.61;2161541;82;21267;-82
2021/05/03 03:41:54;;;;;;;7.75;5.00;;;;;;;5.59;78.19;98562.50;2137927;82;21191;-82
2021/05/03 03:44:56;;;;;;;6.40;5.05;;;;;;;5.60;78.19;98559.75;2124977;82;21159;-82
2021/05/03 03:47:58;;;;;;;5.40;4.90;;;;;;;5.57;78.12;98568.30;2125431;84;21544;-81
2021/05/03 03:50:59;;;;;;;6.00;4.72;;;;;;;5.57;78.06;98566.52;2125384;83;21132;-81
2021/05/03 03:54:01;;;;;;;5.55;5.05;;;;;;;5.61;78.06;98571.77;2125223;83;21187;-82
2021/05/03 03:57:03;;;;;;;5.87;5.28;;;;;;;5.61;78.06;98570.47;2145862;82;21314;-81
2021/05/03 04:00:04;;;;;;;5.78;5.30;;;;;;;5.63;78.06;98573.72;2159588;82;21199;-80
2021/05/03 04:03:07;;;;;;;5.33;4.92;;;;;;;5.60;78.11;98577.93;2160108;82;21273;-81
2021/05/03 04:06:17;;;;;;;4.60;4.30;;;;;;;5.62;77.99;98577.77;2161706;82;21787;-83
2021/05/03 04:09:26;;;;;;;4.90;4.50;;;;;;;5.63;78.09;98574.20;2161763;81;21295;-82
2021/05/03 04:12:39;;;;;;;6.75;5.08;;;;;;;5.65;77.95;98582.17;2161158;82;21181;-82
2021/05/03 04:25:38;;;;;;;4.62;3.87;;;;;;;5.64;78.56;98600.03;2140909;82;21151;-80
2021/05/03 04:28:39;;;;;;;4.80;4.40;;;;;;;5.69;78.83;98600.89;2142960;82;21152;-80
2021/05/03 04:31:41;;;;;;;7.72;4.80;;;;;;;5.66;79.01;98599.39;2141962;82;21289;-81
2021/05/03 04:34:42;;;;;;;4.70;4.30;;;;;;;5.65;79.11;98611.23;2143477;82;21155;-81
2021/05/03 04:37:44;;;;;;;6.60;5.37;;;;;;;5.56;79.47;98612.95;2142958;82;21131;-81
2021/05/03 04:40:46;;;;;;;4.17;3.83;;;;;;;5.52;79.28;98616.01;2144332;82;21101;-82
2021/05/03 04:43:48;;;;;;;4.53;4.12;;;;;;;5.50;79.10;98617.94;2141670;82;21112;-81
2021/05/03 04:46:49;;;;;;;5.33;4.83;;;;;;;5.41;78.74;98626.14;2144937;82;21167;-81
2021/05/03 04:49:51;;;;;;;7.97;4.78;;;;;;;5.37;78.91;98626.91;2141220;82;21171;-80
2021/05/03 04:52:53;;;;;;;5.60;5.10;;;;;;;5.28;78.74;98626.98;2144414;82;21159;-79
2021/05/03 04:55:54;;;;;;;6.03;5.12;;;;;;;5.23;79.03;98635.71;2141949;82;21143;-77
2021/05/03 04:58:56;;;;;;;6.17;3.72;;;;;;;5.16;78.96;98635.95;2143899;82;21676;-79
2021/05/03 05:01:59;;;;;;;5.80;5.28;;;;;;;5.12;79.32;98636.71;2142549;82;21096;-79
2021/05/03 05:05:01;;;;;;;6.12;4.70;;;;;;;5.11;79.27;98639.79;2144888;82;21322;-79
2021/05/03 05:08:03;;;;;;;5.00;4.30;;;;;;;5.13;79.60;98638.38;2144966;82;21188;-79
2021/05/03 05:11:06;;;;;;;6.15;4.45;;;;;;;5.11;79.78;98646.77;2152212;82;21580;-79
2021/05/03 05:14:09;;;;;;;4.10;3.80;;;;;;;5.12;79.64;98650.98;2149944;82;21265;-79
2021/05/03 05:17:12;;;;;;;6.05;4.40;;;;;;;5.21;79.58;98658.38;2132843;83;21305;-78
2021/05/03 05:20:14;;;;;;;3.98;3.50;;;;;;;5.27;79.61;98656.50;2133063;82;21301;-80
2021/05/03 05:23:16;;;;;;;4.65;3.58;;;;;;;5.31;79.03;98652.19;2135180;82;21151;-79
2021/05/03 05:26:18;;;;;;;3.47;3.22;;;;;;;5.30;78.83;98650.55;2169817;82;21583;-81
2021/05/03 05:29:24;;;;;;;4.45;2.95;;;;;;;5.32;78.40;98654.30;2169689;82;21167;-79
2021/05/03 05:32:23;;;;;;;3.40;3.12;;;;;;;5.34;78.32;98660.15;2169461;82;21663;-80
2021/05/03 05:35:25;;;;;;;3.35;3.15;;;;;;;5.36;78.13;98662.11;2170452;82;21739;-78
2021/05/03 05:38:26;;;;;;;3.30;3.00;;;;;;;5.39;78.38;98666.55;2170061;82;21655;-79
2021/05/03 05:41:28;;;;;;;4.12;3.83;;;;;;;5.41;78.42;98662.50;2170050;82;21167;-82
2021/05/03 05:44:32;;;;;;;4.10;3.80;;;;;;;5.48;78.41;98673.91;2170127;82;21128;-79
2021/05/03 05:47:34;;;;;;;3.67;3.35;;;;;;;5.55;78.54;98672.35;2169700;82;21112;-80
2021/05/03 05:50:38;;;;;;;4.95;4.37;;;;;;;5.59;78.17;98674.19;2169817;82;21151;-80
2021/05/03 05:53:40;;;;;;;3.72;3.42;;;;;;;5.61;78.14;98676.16;2167545;82;21160;-81
2021/05/03 05:56:42;;;;;;;3.67;3.35;;;;;;;5.77;78.24;98681.50;2169425;82;21151;-79
2021/05/03 05:59:59;;;;;;;3.62;3.33;;;;;;;5.91;77.89;98677.08;2145901;82;21132;-82
2021/05/03 06:03:01;;;;;;;3.70;3.40;;;;;;;6.00;78.01;98680.56;2123277;83;21844;-79
2021/05/03 06:06:03;;;;;;;3.45;3.15;;;;;;;5.99;77.69;98686.23;2117091;83;21316;-81
2021/05/03 06:09:04;;;;;;;3.65;3.30;;;;;;;5.97;77.95;98688.18;2147861;82;21293;-81
2021/05/03 06:12:06;;;;;;;3.85;3.42;;;;;;;5.97;77.66;98684.28;2178097;82;21271;-81
2021/05/03 06:15:14;;;;;;;3.52;3.27;;;;;;;5.99;77.87;98688.84;2177491;82;22229;-81
2021/05/03 06:18:18;;;;;;;4.17;3.87;;;;;;;5.93;77.75;98690.73;2165939;82;21109;-80
2021/05/03 06:21:20;;;;;;;3.60;3.25;;;;;;;6.05;77.65;98702.22;2140731;83;21576;-81
2021/05/03 06:24:21;;;;;;;3.85;3.42;;;;;;;6.04;77.07;98710.98;2140220;83;21289;-81
2021/05/03 06:27:23;;;;;;;4.30;3.90;;;;;;;5.99;77.09;98703.13;2140815;83;21139;-80
2021/05/03 06:30:25;;;;;;;3.98;3.67;;;;;;;6.02;77.27;98713.70;2156720;82;21140;-79
2021/05/03 06:33:27;;;;;;;3.80;3.33;;;;;;;6.08;76.99;98721.40;2145056;82;21790;-80
2021/05/03 06:36:29;;;;;;;7.17;4.80;;;;;;;6.01;76.38;98725.56;2143439;82;21285;-81
2021/05/03 06:39:31;;;;;;;3.75;3.45;;;;;;;5.91;76.83;98729.54;2164264;82;21147;-86
2021/05/03 06:42:33;;;;;;;3.15;2.92;;;;;;;5.90;77.04;98734.38;2175716;82;21134;-83
2021/05/03 06:45:34;;;;;;;3.72;3.42;;;;;;;5.82;76.36;98742.09;2175681;82;21183;-82
2021/05/03 06:48:36;;;;;;;4.00;3.60;;;;;;;5.77;76.86;98747.75;2155555;82;21128;-81
2021/05/03 06:51:38;;;;;;;3.75;3.45;;;;;;;5.71;77.16;98750.45;2160414;82;21245;-80
2021/05/03 06:54:40;;;;;;;4.05;3.47;;;;;;;5.68;77.16;98746.85;2161257;82;21572;-79
2021/05/03 06:57:42;;;;;;;5.03;4.33;;;;;;;5.69;77.27;98745.89;2163094;82;21131;-79
2021/05/03 07:00:43;;;;;;;4.70;4.30;;;;;;;5.69;77.58;98750.27;2144680;82;21304;-79
2021/05/03 07:03:45;;;;;;;4.47;4.08;;;;;;;5.73;77.67;98752.08;2169681;82;21171;-79
2021/05/03 07:06:46;;;;;;;5.95;4.33;;;;;;;5.83;77.58;98752.82;2167593;82;21293;-78
2021/05/03 07:09:48;;;;;;;6.40;5.40;;;;;;;5.91;77.13;98756.83;2175661;82;21306;-78
2021/05/03 07:12:50;;;;;;;7.28;5.12;;;;;;;5.97;77.22;98761.44;2155000;82;21131;-77
2021/05/03 07:15:52;;;;;;;4.28;3.87;;;;;;;6.04;77.14;98767.69;2164109;82;21628;-79
2021/05/03 07:18:54;;;;;;;3.90;3.60;;;;;;;6.03;77.17;98773.01;2177649;82;21273;-79
2021/05/03 07:21:56;;;;;;;3.30;3.10;;;;;;;6.03;76.85;98771.22;2177622;82;21128;-78
2021/05/03 07:24:57;;;;;;;2.80;2.60;;;;;;;6.00;76.65;98763.73;2177431;82;21179;-78
2021/05/03 07:27:59;;;;;;;4.72;3.50;;;;;;;6.02;76.77;98774.79;2177652;82;21302;-78
2021/05/03 07:31:01;;;;;;;2.65;2.45;;;;;;;6.09;77.44;98768.52;2177729;82;21773;-78
2021/05/03 07:34:03;;;;;;;2.37;2.17;;;;;;;6.24;76.95;98767.84;2177959;82;21322;-78
2021/05/03 07:37:06;;;;;;;1.85;1.75;;;;;;;6.41;76.58;98771.88;2177663;82;21297;-79
2021/05/03 07:40:08;;;;;;;2.40;2.25;;;;;;;6.87;76.54;98775.10;2154178;82;21591;-79
2021/05/03 07:43:10;;;;;;;2.37;2.17;;;;;;;7.27;76.15;98783.59;2177971;82;21706;-78
2021/05/03 07:46:12;;;;;;;2.72;2.40;;;;;;;7.63;75.81;98772.47;2177671;82;21171;-79
2021/05/03 07:49:14;;;;;;;2.40;2.20;;;;;;;7.94;75.23;98781.81;2177882;82;21297;-78
2021/05/03 07:52:16;;;;;;;2.40;2.20;;;;;;;8.38;74.58;98781.55;2178005;82;21285;-78
2021/05/03 07:55:18;;;;;;;2.10;1.80;;;;;;;8.70;72.97;98781.53;2177718;82;21294;-77
2021/05/03 07:58:20;;;;;;;2.37;2.00;;;;;;;9.01;71.97;98797.28;2177614;82;21301;-80
2021/05/03 08:01:22;;;;;;;3.12;2.37;;;;;;;9.30;71.59;98798.49;2170080;82;21273;-79
2021/05/03 08:04:24;;;;;;;3.62;2.55;;;;;;;9.35;71.21;98797.51;2155171;82;21123;-85
2021/05/03 08:07:25;;;;;;;1.75;1.65;;;;;;;9.43;71.44;98808.42;2146837;82;21607;-79
2021/05/03 08:10:27;;;;;;;2.12;1.92;;;;;;;9.45;69.91;98811.19;2141689;82;21305;-79
2021/05/03 08:13:29;;;;;;;2.12;1.92;;;;;;;9.31;70.69;98816.61;2141585;82;21326;-80
2021/05/03 08:16:36;;;;;;;2.22;2.08;;;;;;;9.29;69.52;98823.81;2141709;82;21167;-80
2021/05/03 08:19:35;;;;;;;4.17;2.00;;;;;;;9.33;69.48;98823.81;2140573;83;21188;-85
2021/05/03 08:22:37;;;;;;;2.25;2.05;;;;;;;9.51;70.53;98830.58;2155002;82;21159;-87
2021/05/03 08:25:38;;;;;;;2.08;1.98;;;;;;;9.52;67.23;98827.02;2159409;82;21116;-85
2021/05/03 08:28:46;;;;;;;3.08;2.33;;;;;;;9.71;69.33;98831.01;2159943;82;21294;-77
2021/05/03 08:31:44;;;;;;;2.67;2.47;;;;;;;9.61;67.46;98838.56;2160402;82;21349;-78
2021/05/03 08:34:46;;;;;;;3.22;2.15;;;;;;;9.48;67.51;98834.85;2161706;82;21288;-80
2021/05/03 08:37:48;;;;;;;3.37;1.87;;;;;;;9.35;68.03;98846.66;2162458;82;21674;-83
2021/05/03 08:40:50;;;;;;;5.05;3.40;;;;;;;9.29;68.68;98846.52;2162693;82;21276;-79
2021/05/03 08:43:53;;;;;;;9.63;6.33;;;;;;;9.22;68.15;98854.20;2156736;82;21270;-81
2021/05/03 08:46:54;;;;;;;2.85;2.65;;;;;;;9.28;68.86;98854.84;2161689;82;21147;-82
2021/05/03 08:50:03;;;;;;;5.00;3.90;;;;;;;9.30;67.95;98859.90;2159577;82;21257;-81
2021/05/03 08:53:05;;;;;;;5.10;3.45;;;;;;;9.30;68.78;98862.52;2160066;82;21250;-80
2021/05/03 08:56:05;;;;;;;6.62;4.90;;;;;;;9.29;67.70;98859.58;2164160;82;21532;-80
2021/05/03 08:59:07;;;;;;;5.90;4.58;;;;;;;9.29;68.32;98866.11;2159762;82;21734;-80
2021/05/03 09:02:09;;;;;;;4.50;3.42;;;;;;;9.15;67.92;98868.94;2158539;82;21293;-80
2021/05/03 09:05:11;;;;;;;6.50;5.17;;;;;;;9.08;68.25;98866.66;2137985;82;21733;-80
2021/05/03 09:08:13;;;;;;;7.72;5.90;;;;;;;9.10;68.39;98868.60;2176860;82;21139;-78
2021/05/03 09:11:14;;;;;;;10.95;6.30;;;;;;;9.16;68.55;98874.48;2159143;81;21340;-80
2021/05/03 09:14:16;;;;;;;3.95;3.58;;;;;;;9.17;68.47;98877.41;2139906;82;21278;-80
2021/05/03 09:17:18;;;;;;;4.22;2.50;;;;;;;9.30;68.30;98883.41;2151659;82;22294;-82
2021/05/03 09:20:20;;;;;;;4.72;3.70;;;;;;;9.39;68.29;98888.45;2158891;82;21254;-81
2021/05/03 09:23:24;;;;;;;4.85;2.77;;;;;;;9.25;68.04;98890.95;2152562;82;21317;-82
2021/05/03 09:26:26;;;;;;;3.40;2.70;;;;;;;9.19;68.32;98889.00;2153315;82;21702;-80
2021/05/03 09:29:28;;;;;;;5.45;2.83;;;;;;;9.10;68.54;98889.01;2150889;82;21258;-81
2021/05/03 09:32:30;;;;;;;6.00;3.40;;;;;;;9.01;68.05;98891.80;2152843;82;21155;-79
2021/05/03 09:35:32;;;;;;;3.08;2.60;;;;;;;9.02;68.40;98894.73;2152849;82;21143;-80
2021/05/03 09:38:34;;;;;;;4.15;3.12;;;;;;;9.00;68.05;98889.67;2148462;82;21282;-79
2021/05/03 09:41:36;;;;;;;6.78;4.00;;;;;;;9.00;68.66;98892.29;2144369;82;21303;-79
2021/05/03 09:44:38;;;;;;;3.55;2.60;;;;;;;9.17;68.58;98899.62;2139516;82;21718;-85
2021/05/03 09:47:40;;;;;;;2.98;2.52;;;;;;;9.37;68.40;98893.04;2154204;82;21269;-80
2021/05/03 09:50:42;;;;;;;2.85;2.62;;;;;;;9.62;68.42;98907.36;2136750;82;21288;-79
2021/05/03 09:53:44;;;;;;;3.83;3.25;;;;;;;9.74;67.67;98906.48;2135067;82;21163;-79
2021/05/03 09:56:45;;;;;;;3.52;2.87;;;;;;;9.72;67.82;98907.97;2133392;83;21318;-79
2021/05/03 09:59:52;;;;;;;2.98;2.77;;;;;;;9.71;66.39;98910.76;2112064;84;21777;-80
2021/05/03 10:02:53;;;;;;;2.25;2.05;;;;;;;9.77;67.34;98905.64;2166166;82;21687;-79
2021/05/03 10:05:55;;;;;;;3.98;2.90;;;;;;;9.77;67.59;98911.37;2170294;82;21644;-79
2021/05/03 10:08:59;;;;;;;4.08;3.08;;;;;;;9.71;67.51;98911.57;2169589;82;21551;-77
2021/05/03 10:12:01;;;;;;;3.90;3.52;;;;;;;9.64;67.29;98917.95;2144726;82;21147;-79
2021/05/03 10:15:02;;;;;;;2.80;2.60;;;;;;;9.38;67.50;98917.38;2142811;82;21096;-79
2021/05/03 10:18:04;;;;;;;4.92;2.80;;;;;;;9.23;67.42;98921.14;2140910;82;21272;-79
2021/05/03 10:21:06;;;;;;;2.95;2.15;;;;;;;9.12;67.92;98936.67;2142923;82;21155;-80
2021/05/03 10:24:08;;;;;;;2.58;2.37;;;;;;;9.03;67.50;98933.73;2171817;82;21265;-79
2021/05/03 10:27:10;;;;;;;5.42;2.62;;;;;;;8.79;68.07;98930.66;2174640;82;21706;-84
2021/05/03 10:30:11;;;;;;;3.55;2.92;;;;;;;8.52;68.82;98945.31;2157908;82;21162;-80
2021/05/03 10:33:14;;;;;;;7.03;4.28;;;;;;;8.45;69.25;98945.12;2179493;82;21297;-78
2021/05/03 10:36:16;;;;;;;3.85;2.00;;;;;;;8.30;69.36;98945.38;2171569;82;21246;-80
2021/05/03 10:39:18;;;;;;;6.90;3.80;;;;;;;8.32;69.87;98945.22;2142424;82;21309;-79
2021/05/03 10:42:20;;;;;;;3.40;2.35;;;;;;;8.34;69.98;98947.20;2140743;83;21324;-79
2021/05/03 10:45:22;;;;;;;3.77;3.42;;;;;;;8.40;70.21;98945.27;2156067;82;21588;-80
2021/05/03 10:48:25;;;;;;;3.47;2.20;;;;;;;8.67;70.50;98941.56;2167253;82;21170;-81
2021/05/03 10:51:28;;;;;;;3.35;2.20;;;;;;;8.94;69.96;98939.95;2142663;82;21178;-78
2021/05/03 10:54:34;;;;;;;3.60;2.98;;;;;;;9.06;69.48;98944.38;2147778;82;21147;-80
2021/05/03 10:57:36;;;;;;;4.50;3.27;;;;;;;9.07;69.10;98941.59;2177621;82;21155;-80
2021/05/03 11:00:38;;;;;;;2.50;2.30;;;;;;;9.10;69.14;98945.66;2175495;82;21571;-80
2021/05/03 11:03:40;;;;;;;4.25;3.25;;;;;;;9.17;69.57;98947.13;2171509;82;21258;-80
2021/05/03 11:06:42;;;;;;;6.08;2.55;;;;;;;9.15;69.53;98946.48;2166953;82;21151;-80
2021/05/03 11:09:44;;;;;;;7.30;3.77;;;;;;;8.99;68.58;98954.65;2151754;82;21313;-77
2021/05/03 11:12:46;;;;;;;5.30;3.05;;;;;;;8.79;69.13;98947.63;2153994;82;21254;-77
2021/05/03 11:15:48;;;;;;;7.22;3.30;;;;;;;8.82;69.28;98958.23;2139160;82;21717;-77
2021/05/03 11:18:50;;;;;;;5.03;2.90;;;;;;;8.95;69.26;98949.90;2133188;83;21163;-78
2021/05/03 11:21:52;;;;;;;5.58;3.90;;;;;;;9.17;68.34;98946.64;2149135;82;21734;-78
2021/05/03 11:24:55;;;;;;;4.03;3.08;;;;;;;9.38;68.80;98956.58;2167996;82;21143;-78
2021/05/03 11:28:01;;;;;;;4.37;3.15;;;;;;;9.75;68.92;98952.08;2150339;82;21127;-83
2021/05/03 11:31:03;;;;;;;2.67;2.30;;;;;;;9.98;67.85;98945.62;2133673;82;21167;-79
2021/05/03 11:34:12;;;;;;;5.03;3.42;;;;;;;9.91;64.70;98957.25;2139332;82;21318;-78
2021/05/03 11:37:11;;;;;;;3.52;3.20;;;;;;;9.85;66.56;98950.57;2141690;82;21537;-78
2021/05/03 11:40:22;;;;;;;4.22;3.40;;;;;;;9.92;67.18;98941.88;2167962;82;21100;-78
2021/05/03 11:43:36;;;;;;;2.98;2.72;;;;;;;9.94;66.27;98952.98;2165687;82;21303;-78
2021/05/03 11:46:31;;;;;;;2.87;2.67;;;;;;;9.99;65.87;98949.87;2146822;82;21128;-82
2021/05/03 11:49:34;;;;;;;4.62;2.58;;;;;;;10.05;65.14;98947.87;2158259;82;21274;-80
2021/05/03 11:52:35;;;;;;;3.08;2.77;;;;;;;10.10;65.18;98936.91;2168145;82;21188;-79
2021/05/03 11:55:37;;;;;;;3.20;2.92;;;;;;;10.10;63.46;98952.11;2136241;82;21289;-81
2021/05/03 11:58:39;;;;;;;2.40;2.20;;;;;;;10.07;63.56;98941.18;2134075;82;21796;-81
2021/05/03 12:01:41;;;;;;;5.10;3.47;;;;;;;10.01;63.34;98949.70;2164767;82;21615;-83
2021/05/03 12:04:43;;;;;;;4.33;3.70;;;;;;;10.10;63.94;98952.61;2168222;82;21289;-82
2021/05/03 12:07:45;;;;;;;4.10;2.15;;;;;;;10.23;63.91;98946.34;2170106;82;21171;-82
2021/05/03 12:10:47;;;;;;;4.12;3.22;;;;;;;10.20;62.41;98947.97;2139501;82;21639;-83
2021/05/03 12:13:50;;;;;;;9.10;5.25;;;;;;;10.20;61.88;98941.43;2149338;82;21616;-81
2021/05/03 12:16:52;;;;;;;5.10;3.37;;;;;;;10.18;62.94;98952.57;2129527;82;21123;-81
2021/05/03 12:19:54;;;;;;;5.87;3.72;;;;;;;10.26;62.65;98946.02;2155650;82;21177;-82
2021/05/03 12:22:57;;;;;;;6.12;4.28;;;;;;;10.30;62.69;98941.25;2160053;82;21369;-81
2021/05/03 12:26:00;;;;;;;6.53;3.75;;;;;;;10.32;61.84;98940.58;2160964;82;21184;-82
2021/05/03 12:29:02;;;;;;;6.05;3.58;;;;;;;10.38;60.78;98927.63;2161702;82;21687;-81
2021/05/03 12:32:05;;;;;;;4.83;3.62;;;;;;;10.33;61.03;98933.04;2161781;82;21164;-81
2021/05/03 12:35:07;;;;;;;5.95;3.50;;;;;;;10.21;60.31;98934.72;2161867;82;21318;-82
2021/05/03 12:38:09;;;;;;;4.55;3.33;;;;;;;10.07;59.70;98926.30;2162227;82;21349;-81
2021/05/03 12:41:11;;;;;;;8.73;4.55;;;;;;;10.19;60.52;98939.80;2161877;82;21322;-82
2021/05/03 12:44:14;;;;;;;7.42;3.70;;;;;;;10.31;60.80;98935.02;2161886;82;21306;-81
2021/05/03 12:47:18;;;;;;;5.45;3.40;;;;;;;10.24;60.57;98930.96;2161909;82;21133;-82
2021/05/03 12:50:27;;;;;;;5.67;3.80;;;;;;;10.01;60.01;98930.89;2161600;82;21163;-84
2021/05/03 12:53:31;;;;;;;4.30;3.25;;;;;;;10.09;61.71;98940.02;2161353;82;21311;-82
2021/05/03 12:56:37;;;;;;;4.55;4.05;;;;;;;10.23;61.95;98945.84;2161511;82;21756;-81
2021/05/03 12:59:39;;;;;;;4.00;3.58;;;;;;;10.27;61.42;98934.56;2161618;82;21313;-82
2021/05/03 13:02:48;;;;;;;8.83;5.90;;;;;;;10.33;60.99;98925.19;2162056;82;21326;-82
2021/05/03 13:05:51;;;;;;;6.72;4.62;;;;;;;10.38;60.64;98929.42;2161383;82;21311;-82
2021/05/03 13:09:01;;;;;;;6.90;5.03;;;;;;;10.38;60.55;98938.09;2160904;82;21298;-81
2021/05/03 13:25:11;;;;;;;5.58;4.25;;;;;;;10.37;60.72;98920.77;2170275;82;21286;-80
2021/05/03 13:28:10;;;;;;;8.20;4.75;;;;;;;10.32;59.50;98915.71;2169622;82;21160;-81
2021/05/03 13:31:12;;;;;;;7.72;4.72;;;;;;;10.22;59.83;98914.62;2170363;82;21662;-82
2021/05/03 13:34:14;;;;;;;6.25;4.17;;;;;;;10.23;59.83;98920.17;2170453;82;21404;-82
2021/05/03 13:37:16;;;;;;;3.55;3.17;;;;;;;10.23;60.54;98924.09;2170109;82;21164;-81
2021/05/03 13:40:18;;;;;;;3.55;3.02;;;;;;;10.35;60.20;98915.39;2170030;82;21711;-84
2021/05/03 13:43:22;;;;;;;4.15;3.35;;;;;;;10.47;59.58;98906.14;2170015;82;21751;-83
2021/05/03 13:46:24;;;;;;;4.12;2.85;;;;;;;10.58;59.07;98918.00;2170026;82;21281;-84
2021/05/03 13:49:26;;;;;;;5.55;3.75;;;;;;;10.54;58.42;98912.31;2170135;82;21265;-82
2021/05/03 13:52:28;;;;;;;4.92;3.95;;;;;;;10.64;58.97;98909.46;2170059;82;21148;-82
2021/05/03 13:55:31;;;;;;;4.97;2.98;;;;;;;10.62;57.00;98912.75;2170038;82;21156;-82
2021/05/03 13:58:33;;;;;;;5.67;3.83;;;;;;;10.56;56.77;98906.89;2170185;82;21168;-82
2021/05/03 14:01:35;;;;;;;5.70;4.42;;;;;;;10.56;57.88;98919.48;2170388;82;21762;-82
2021/05/03 14:04:37;;;;;;;7.53;4.95;;;;;;;10.54;57.41;98925.41;2170357;82;21167;-82
2021/05/03 14:07:39;;;;;;;4.08;3.40;;;;;;;10.56;56.66;98935.20;2170446;82;21329;-83
2021/05/03 14:10:42;;;;;;;5.35;3.45;;;;;;;10.61;55.89;98930.77;2170365;82;21187;-82
2021/05/03 14:13:44;;;;;;;4.25;3.85;;;;;;;10.66;54.80;98922.69;2170129;82;21532;-83
2021/05/03 14:16:48;;;;;;;5.87;3.85;;;;;;;10.73;55.59;98923.63;2170219;82;21112;-83
2021/05/03 14:19:49;;;;;;;4.65;3.20;;;;;;;10.84;53.99;98918.47;2170499;82;21314;-84
2021/05/03 14:22:51;;;;;;;4.78;3.00;;;;;;;10.92;54.66;98922.33;2170568;82;21305;-83
2021/05/03 14:25:54;;;;;;;6.12;3.00;;;;;;;10.97;53.07;98942.28;2170189;82;21148;-82
2021/05/03 14:29:01;;;;;;;7.12;4.33;;;;;;;10.64;55.41;98923.36;2170794;82;21151;-82
2021/05/03 14:32:03;;;;;;;4.45;3.35;;;;;;;10.53;57.01;98935.56;2142028;82;21275;-82
2021/05/03 14:35:08;;;;;;;7.45;4.08;;;;;;;10.43;55.71;98938.90;2170146;82;21136;-82
2021/05/03 14:38:08;;;;;;;4.55;3.45;;;;;;;10.28;56.21;98929.64;2170308;82;21148;-80
2021/05/03 14:41:13;;;;;;;3.05;2.67;;;;;;;10.25;56.73;98924.27;2170575;82;21314;-87
2021/05/03 14:44:16;;;;;;;4.12;2.62;;;;;;;10.30;56.14;98927.66;2170229;82;21174;-82
2021/05/03 14:47:21;;;;;;;4.55;2.35;;;;;;;10.25;56.03;98915.11;2142938;82;21294;-83